sensor_id;sensor_type;location;lat;lon;timestamp;temperature;humidity
17284;DHT22;8760;52.248;20.952;2022-12-18T00:02:01;-3.80;1.00
17284;DHT22;8760;52.248;20.952;2022-12-18T00:04:30;-3.80;1.00
17284;DHT22;8760;52.248;20.952;2022-12-18T00:06:57;-3.80;1.00
17284;DHT22;8760;52.248;20.952;2022-12-18T00:09:24;-3.80;1.00
17284;DHT22;8760;52.248;20.952;2022-12-18T00:11:50;-3.70;1.00
17284;DHT22;8760;52.248;20.952;2022-12-18T00:14:17;-3.80;1.00
17284;DHT22;8760;52.248;20.952;2022-12-18T00:16:45;-3.80;1.00
17284;DHT22;8760;52.248;20.952;2022-12-18T00:19:13;-3.70;99.90
17284;DHT22;8760;52.248;20.952;2022-12-18T00:21:42;-3.70;99.90
17284;DHT22;8760;52.248;20.952;2022-12-18T00:24:10;-3.80;1.00
17284;DHT22;8760;52.248;20.952;2022-12-18T00:26:38;-3.80;99.90
17284;DHT22;8760;52.248;20.952;2022-12-18T00:29:07;-3.80;99.90
17284;DHT22;8760;52.248;20.952;2022-12-18T00:31:34;-3.80;99.90
17284;DHT22;8760;52.248;20.952;2022-12-18T00:34:01;-3.80;99.90
17284;DHT22;8760;52.248;20.952;2022-12-18T00:36:29;-3.70;99.90
17284;DHT22;8760;52.248;20.952;2022-12-18T00:38:59;-3.60;99.90
17284;DHT22;8760;52.248;20.952;2022-12-18T00:41:27;-3.60;99.90
17284;DHT22;8760;52.248;20.952;2022-12-18T00:44:13;-3.60;99.90
17284;DHT22;8760;52.248;20.952;2022-12-18T00:46:41;-3.60;99.90
17284;DHT22;8760;52.248;20.952;2022-12-18T00:49:08;-3.60;99.90
17284;DHT22;8760;52.248;20.952;2022-12-18T00:51:35;-3.60;54.10
17284;DHT22;8760;52.248;20.952;2022-12-18T00:54:03;-3.50;99.90
17284;DHT22;8760;52.248;20.952;2022-12-18T00:56:30;-3.50;35.30
17284;DHT22;8760;52.248;20.952;2022-12-18T00:58:57;-3.50;1.00
17284;DHT22;8760;52.248;20.952;2022-12-18T01:01:24;-3.60;36.20
17284;DHT22;8760;52.248;20.952;2022-12-18T01:03:51;-3.50;99.90
17284;DHT22;8760;52.248;20.952;2022-12-18T01:06:17;-3.40;99.90
17284;DHT22;8760;52.248;20.952;2022-12-18T01:08:45;-3.40;1.00
17284;DHT22;8760;52.248;20.952;2022-12-18T01:11:15;-3.30;1.00
17284;DHT22;8760;52.248;20.952;2022-12-18T01:13:42;-3.40;99.90
17284;DHT22;8760;52.248;20.952;2022-12-18T01:16:11;-3.50;99.90
17284;DHT22;8760;52.248;20.952;2022-12-18T01:18:38;-3.50;1.00
17284;DHT22;8760;52.248;20.952;2022-12-18T01:21:06;-3.50;1.00
17284;DHT22;8760;52.248;20.952;2022-12-18T01:23:33;-3.50;1.00
17284;DHT22;8760;52.248;20.952;2022-12-18T01:26:04;-3.50;1.00
17284;DHT22;8760;52.248;20.952;2022-12-18T01:28:33;-3.50;1.00
17284;DHT22;8760;52.248;20.952;2022-12-18T01:31:10;-3.60;1.00
17284;DHT22;8760;52.248;20.952;2022-12-18T01:33:37;-3.60;99.90
17284;DHT22;8760;52.248;20.952;2022-12-18T01:36:04;-3.50;1.00
17284;DHT22;8760;52.248;20.952;2022-12-18T01:38:31;-3.50;1.00
17284;DHT22;8760;52.248;20.952;2022-12-18T01:40:58;-3.50;1.00
17284;DHT22;8760;52.248;20.952;2022-12-18T01:43:42;-3.50;1.00
17284;DHT22;8760;52.248;20.952;2022-12-18T01:46:09;-3.50;99.90
17284;DHT22;8760;52.248;20.952;2022-12-18T01:48:36;-3.50;1.00
17284;DHT22;8760;52.248;20.952;2022-12-18T01:51:03;-3.40;99.90
17284;DHT22;8760;52.248;20.952;2022-12-18T01:53:31;-3.40;1.00
17284;DHT22;8760;52.248;20.952;2022-12-18T01:55:58;-3.40;1.00
17284;DHT22;8760;52.248;20.952;2022-12-18T01:58:32;-3.50;8.00
17284;DHT22;8760;52.248;20.952;2022-12-18T02:01:03;-3.40;99.90
17284;DHT22;8760;52.248;20.952;2022-12-18T02:03:30;-3.50;1.00
17284;DHT22;8760;52.248;20.952;2022-12-18T02:06:01;-3.50;99.90
17284;DHT22;8760;52.248;20.952;2022-12-18T02:08:36;-3.50;99.90
17284;DHT22;8760;52.248;20.952;2022-12-18T02:11:07;-3.50;1.00
17284;DHT22;8760;52.248;20.952;2022-12-18T02:13:42;-3.50;1.00
17284;DHT22;8760;52.248;20.952;2022-12-18T02:16:19;-3.50;1.00
17284;DHT22;8760;52.248;20.952;2022-12-18T02:18:50;-3.50;99.90
17284;DHT22;8760;52.248;20.952;2022-12-18T02:21:28;-3.50;99.90
17284;DHT22;8760;52.248;20.952;2022-12-18T02:24:10;-3.50;99.90
17284;DHT22;8760;52.248;20.952;2022-12-18T02:26:44;-3.50;1.00
17284;DHT22;8760;52.248;20.952;2022-12-18T02:29:15;-3.50;1.00
17284;DHT22;8760;52.248;20.952;2022-12-18T02:31:45;-3.50;99.90
17284;DHT22;8760;52.248;20.952;2022-12-18T02:34:14;-3.50;1.00
17284;DHT22;8760;52.248;20.952;2022-12-18T02:36:42;-3.50;1.00
17284;DHT22;8760;52.248;20.952;2022-12-18T02:39:11;-3.50;1.00
17284;DHT22;8760;52.248;20.952;2022-12-18T02:41:40;-3.50;1.00
17284;DHT22;8760;52.248;20.952;2022-12-18T02:44:10;-3.60;1.00
17284;DHT22;8760;52.248;20.952;2022-12-18T02:46:39;-3.50;99.90
17284;DHT22;8760;52.248;20.952;2022-12-18T02:49:15;-3.50;99.90
17284;DHT22;8760;52.248;20.952;2022-12-18T02:51:51;-3.50;99.90
17284;DHT22;8760;52.248;20.952;2022-12-18T02:54:26;-3.50;1.00
17284;DHT22;8760;52.248;20.952;2022-12-18T02:57:03;-3.50;1.00
17284;DHT22;8760;52.248;20.952;2022-12-18T02:59:40;-3.60;99.90
17284;DHT22;8760;52.248;20.952;2022-12-18T03:02:17;-3.60;52.20
17284;DHT22;8760;52.248;20.952;2022-12-18T03:04:48;-3.60;99.90
17284;DHT22;8760;52.248;20.952;2022-12-18T03:07:20;-3.60;99.90
17284;DHT22;8760;52.248;20.952;2022-12-18T03:09:50;-3.60;52.30
17284;DHT22;8760;52.248;20.952;2022-12-18T03:12:21;-3.60;99.90
17284;DHT22;8760;52.248;20.952;2022-12-18T03:14:54;-3.60;99.90
17284;DHT22;8760;52.248;20.952;2022-12-18T03:17:26;-3.60;1.00
17284;DHT22;8760;52.248;20.952;2022-12-18T03:19:56;-3.60;1.00
17284;DHT22;8760;52.248;20.952;2022-12-18T03:22:24;-3.60;1.00
17284;DHT22;8760;52.248;20.952;2022-12-18T03:24:51;-3.50;99.90
17284;DHT22;8760;52.248;20.952;2022-12-18T03:27:20;-3.60;1.00
17284;DHT22;8760;52.248;20.952;2022-12-18T03:29:53;-3.60;99.90
17284;DHT22;8760;52.248;20.952;2022-12-18T03:32:25;-3.60;1.00
17284;DHT22;8760;52.248;20.952;2022-12-18T03:34:58;-3.60;1.00
17284;DHT22;8760;52.248;20.952;2022-12-18T03:37:27;-3.70;1.00
17284;DHT22;8760;52.248;20.952;2022-12-18T03:39:57;-3.70;99.90
17284;DHT22;8760;52.248;20.952;2022-12-18T03:42:27;-3.70;1.00
17284;DHT22;8760;52.248;20.952;2022-12-18T03:45:00;-3.60;1.00
17284;DHT22;8760;52.248;20.952;2022-12-18T03:47:30;-3.60;1.00
17284;DHT22;8760;52.248;20.952;2022-12-18T03:50:07;-3.60;99.90
17284;DHT22;8760;52.248;20.952;2022-12-18T03:52:41;-3.60;1.00
17284;DHT22;8760;52.248;20.952;2022-12-18T03:55:10;-3.60;1.00
17284;DHT22;8760;52.248;20.952;2022-12-18T03:57:38;-3.60;1.00
17284;DHT22;8760;52.248;20.952;2022-12-18T04:00:09;-3.60;1.00
17284;DHT22;8760;52.248;20.952;2022-12-18T04:02:37;-3.60;99.90
17284;DHT22;8760;52.248;20.952;2022-12-18T04:05:08;-3.50;1.00
17284;DHT22;8760;52.248;20.952;2022-12-18T04:07:36;-3.50;1.00
17284;DHT22;8760;52.248;20.952;2022-12-18T04:10:06;-3.60;1.00
17284;DHT22;8760;52.248;20.952;2022-12-18T04:12:33;-3.60;1.00
17284;DHT22;8760;52.248;20.952;2022-12-18T04:15:00;-3.70;1.00
17284;DHT22;8760;52.248;20.952;2022-12-18T04:17:28;-3.70;99.90
17284;DHT22;8760;52.248;20.952;2022-12-18T04:19:55;-3.60;1.00
17284;DHT22;8760;52.248;20.952;2022-12-18T04:22:22;-3.60;99.90
17284;DHT22;8760;52.248;20.952;2022-12-18T04:24:49;-3.70;99.90
17284;DHT22;8760;52.248;20.952;2022-12-18T04:27:16;-3.80;99.90
17284;DHT22;8760;52.248;20.952;2022-12-18T04:29:42;-3.70;99.90
17284;DHT22;8760;52.248;20.952;2022-12-18T04:32:09;-3.80;99.90
17284;DHT22;8760;52.248;20.952;2022-12-18T04:34:37;-3.80;1.00
17284;DHT22;8760;52.248;20.952;2022-12-18T04:37:04;-3.90;99.90
17284;DHT22;8760;52.248;20.952;2022-12-18T04:39:31;-3.90;1.00
17284;DHT22;8760;52.248;20.952;2022-12-18T04:41:58;-4.00;43.00
17284;DHT22;8760;52.248;20.952;2022-12-18T04:44:24;-4.10;1.00
17284;DHT22;8760;52.248;20.952;2022-12-18T04:46:51;-4.20;1.00
17284;DHT22;8760;52.248;20.952;2022-12-18T04:49:18;-4.20;60.70
17284;DHT22;8760;52.248;20.952;2022-12-18T04:51:46;-4.40;1.00
17284;DHT22;8760;52.248;20.952;2022-12-18T04:54:13;-4.60;1.00
17284;DHT22;8760;52.248;20.952;2022-12-18T04:56:40;-4.60;1.00
17284;DHT22;8760;52.248;20.952;2022-12-18T04:59:07;-4.80;99.90
17284;DHT22;8760;52.248;20.952;2022-12-18T05:01:33;-4.80;1.00
17284;DHT22;8760;52.248;20.952;2022-12-18T05:04:00;-4.80;1.00
17284;DHT22;8760;52.248;20.952;2022-12-18T05:06:27;-4.90;1.00
17284;DHT22;8760;52.248;20.952;2022-12-18T05:08:55;-5.00;1.00
17284;DHT22;8760;52.248;20.952;2022-12-18T05:11:22;-4.90;1.00
17284;DHT22;8760;52.248;20.952;2022-12-18T05:13:49;-4.90;1.00
17284;DHT22;8760;52.248;20.952;2022-12-18T05:16:16;-4.90;1.00
17284;DHT22;8760;52.248;20.952;2022-12-18T05:18:43;-4.90;1.00
17284;DHT22;8760;52.248;20.952;2022-12-18T05:21:09;-5.00;41.30
17284;DHT22;8760;52.248;20.952;2022-12-18T05:23:36;-4.90;99.90
17284;DHT22;8760;52.248;20.952;2022-12-18T05:26:06;-4.90;76.00
17284;DHT22;8760;52.248;20.952;2022-12-18T05:28:35;-5.00;33.10
17284;DHT22;8760;52.248;20.952;2022-12-18T05:31:03;-5.00;28.00
17284;DHT22;8760;52.248;20.952;2022-12-18T05:33:31;-5.10;99.90
17284;DHT22;8760;52.248;20.952;2022-12-18T05:36:04;-5.00;99.90
17284;DHT22;8760;52.248;20.952;2022-12-18T05:38:32;-5.00;99.90
17284;DHT22;8760;52.248;20.952;2022-12-18T05:40:59;-5.00;1.00
17284;DHT22;8760;52.248;20.952;2022-12-18T05:43:28;-4.90;1.00
17284;DHT22;8760;52.248;20.952;2022-12-18T05:45:55;-4.90;1.00
17284;DHT22;8760;52.248;20.952;2022-12-18T05:48:22;-4.90;1.00
17284;DHT22;8760;52.248;20.952;2022-12-18T05:50:50;-4.80;1.00
17284;DHT22;8760;52.248;20.952;2022-12-18T05:53:19;-4.80;1.00
17284;DHT22;8760;52.248;20.952;2022-12-18T05:55:46;-4.70;1.00
17284;DHT22;8760;52.248;20.952;2022-12-18T05:58:14;-4.70;1.00
17284;DHT22;8760;52.248;20.952;2022-12-18T06:00:44;-4.60;1.00
17284;DHT22;8760;52.248;20.952;2022-12-18T06:03:13;-4.60;1.00
17284;DHT22;8760;52.248;20.952;2022-12-18T06:05:42;-4.60;1.00
17284;DHT22;8760;52.248;20.952;2022-12-18T06:08:09;-4.50;1.00
17284;DHT22;8760;52.248;20.952;2022-12-18T06:10:36;-4.50;1.00
17284;DHT22;8760;52.248;20.952;2022-12-18T06:13:05;-4.50;1.00
17284;DHT22;8760;52.248;20.952;2022-12-18T06:15:32;-4.50;1.00
17284;DHT22;8760;52.248;20.952;2022-12-18T06:18:01;-4.40;1.00
17284;DHT22;8760;52.248;20.952;2022-12-18T06:20:30;-4.40;1.00
17284;DHT22;8760;52.248;20.952;2022-12-18T06:22:56;-4.40;1.00
17284;DHT22;8760;52.248;20.952;2022-12-18T06:25:23;-4.30;1.00
17284;DHT22;8760;52.248;20.952;2022-12-18T06:27:50;-4.30;1.00
17284;DHT22;8760;52.248;20.952;2022-12-18T06:30:17;-4.30;1.00
17284;DHT22;8760;52.248;20.952;2022-12-18T06:32:44;-4.20;1.00
17284;DHT22;8760;52.248;20.952;2022-12-18T06:35:12;-4.20;1.00
17284;DHT22;8760;52.248;20.952;2022-12-18T06:37:39;-4.20;1.00
17284;DHT22;8760;52.248;20.952;2022-12-18T06:40:06;-4.20;1.00
17284;DHT22;8760;52.248;20.952;2022-12-18T06:42:33;-4.10;1.00
17284;DHT22;8760;52.248;20.952;2022-12-18T06:45:00;-4.20;1.00
17284;DHT22;8760;52.248;20.952;2022-12-18T06:47:27;-4.20;1.00
17284;DHT22;8760;52.248;20.952;2022-12-18T06:49:54;-4.20;1.00
17284;DHT22;8760;52.248;20.952;2022-12-18T06:52:22;-4.20;1.00
17284;DHT22;8760;52.248;20.952;2022-12-18T06:54:49;-4.10;1.00
17284;DHT22;8760;52.248;20.952;2022-12-18T06:57:16;-4.10;1.00
17284;DHT22;8760;52.248;20.952;2022-12-18T06:59:43;-4.10;1.00
17284;DHT22;8760;52.248;20.952;2022-12-18T07:02:11;-4.00;1.00
17284;DHT22;8760;52.248;20.952;2022-12-18T07:04:38;-4.00;1.00
17284;DHT22;8760;52.248;20.952;2022-12-18T07:07:05;-4.00;1.00
17284;DHT22;8760;52.248;20.952;2022-12-18T07:09:33;-3.90;1.00
17284;DHT22;8760;52.248;20.952;2022-12-18T07:12:00;-3.90;1.00
17284;DHT22;8760;52.248;20.952;2022-12-18T07:14:27;-3.90;1.00
17284;DHT22;8760;52.248;20.952;2022-12-18T07:16:54;-3.90;1.00
17284;DHT22;8760;52.248;20.952;2022-12-18T07:19:20;-3.90;1.00
17284;DHT22;8760;52.248;20.952;2022-12-18T07:21:50;-3.90;1.00
17284;DHT22;8760;52.248;20.952;2022-12-18T07:24:17;-3.80;1.00
17284;DHT22;8760;52.248;20.952;2022-12-18T07:26:47;-3.80;1.00
17284;DHT22;8760;52.248;20.952;2022-12-18T07:29:13;-3.80;1.00
17284;DHT22;8760;52.248;20.952;2022-12-18T07:31:40;-3.80;1.00
17284;DHT22;8760;52.248;20.952;2022-12-18T07:34:10;-3.70;1.00
17284;DHT22;8760;52.248;20.952;2022-12-18T07:36:36;-3.60;1.00
17284;DHT22;8760;52.248;20.952;2022-12-18T07:39:03;-3.60;1.00
17284;DHT22;8760;52.248;20.952;2022-12-18T07:41:30;-3.70;1.00
17284;DHT22;8760;52.248;20.952;2022-12-18T07:43:58;-3.60;1.00
17284;DHT22;8760;52.248;20.952;2022-12-18T07:46:25;-3.60;1.00
17284;DHT22;8760;52.248;20.952;2022-12-18T07:48:52;-3.50;1.00
17284;DHT22;8760;52.248;20.952;2022-12-18T07:51:19;-3.50;1.00
17284;DHT22;8760;52.248;20.952;2022-12-18T07:53:46;-3.40;1.00
17284;DHT22;8760;52.248;20.952;2022-12-18T07:56:13;-3.30;1.00
17284;DHT22;8760;52.248;20.952;2022-12-18T07:58:40;-3.30;99.90
17284;DHT22;8760;52.248;20.952;2022-12-18T08:01:09;-3.40;99.90
17284;DHT22;8760;52.248;20.952;2022-12-18T08:03:38;-3.30;99.90
17284;DHT22;8760;52.248;20.952;2022-12-18T08:06:08;-3.40;99.90
17284;DHT22;8760;52.248;20.952;2022-12-18T08:08:35;-3.30;99.90
17284;DHT22;8760;52.248;20.952;2022-12-18T08:11:02;-3.30;99.90
17284;DHT22;8760;52.248;20.952;2022-12-18T08:13:29;-3.20;50.20
17284;DHT22;8760;52.248;20.952;2022-12-18T08:15:57;-3.20;1.00
17284;DHT22;8760;52.248;20.952;2022-12-18T08:18:25;-3.30;1.00
17284;DHT22;8760;52.248;20.952;2022-12-18T08:20:52;-3.30;1.00
17284;DHT22;8760;52.248;20.952;2022-12-18T08:23:19;-3.40;64.60
17284;DHT22;8760;52.248;20.952;2022-12-18T08:25:46;-3.30;99.90
17284;DHT22;8760;52.248;20.952;2022-12-18T08:28:13;-3.30;1.00
17284;DHT22;8760;52.248;20.952;2022-12-18T08:30:40;-3.30;1.00
17284;DHT22;8760;52.248;20.952;2022-12-18T08:33:07;-3.30;52.70
17284;DHT22;8760;52.248;20.952;2022-12-18T08:35:36;-3.20;1.00
17284;DHT22;8760;52.248;20.952;2022-12-18T08:38:03;-3.20;99.90
17284;DHT22;8760;52.248;20.952;2022-12-18T08:40:30;-3.10;1.00
17284;DHT22;8760;52.248;20.952;2022-12-18T08:42:57;-3.10;1.00
17284;DHT22;8760;52.248;20.952;2022-12-18T08:45:41;-3.10;71.40
17284;DHT22;8760;52.248;20.952;2022-12-18T08:48:08;-3.20;1.00
17284;DHT22;8760;52.248;20.952;2022-12-18T08:50:36;-3.20;1.00
17284;DHT22;8760;52.248;20.952;2022-12-18T08:53:03;-3.30;1.00
17284;DHT22;8760;52.248;20.952;2022-12-18T08:55:30;-3.30;1.00
17284;DHT22;8760;52.248;20.952;2022-12-18T08:57:56;-3.10;59.20
17284;DHT22;8760;52.248;20.952;2022-12-18T09:00:23;-3.10;1.00
17284;DHT22;8760;52.248;20.952;2022-12-18T09:02:50;-3.00;1.00
17284;DHT22;8760;52.248;20.952;2022-12-18T09:05:17;-2.90;1.00
17284;DHT22;8760;52.248;20.952;2022-12-18T09:07:45;-3.00;99.90
17284;DHT22;8760;52.248;20.952;2022-12-18T09:10:12;-2.90;1.00
17284;DHT22;8760;52.248;20.952;2022-12-18T09:12:39;-2.90;99.90
17284;DHT22;8760;52.248;20.952;2022-12-18T09:15:06;-3.00;99.90
17284;DHT22;8760;52.248;20.952;2022-12-18T09:17:33;-3.00;99.90
17284;DHT22;8760;52.248;20.952;2022-12-18T09:20:00;-3.00;99.90
17284;DHT22;8760;52.248;20.952;2022-12-18T09:22:26;-2.90;1.00
17284;DHT22;8760;52.248;20.952;2022-12-18T09:24:55;-2.70;1.00
17284;DHT22;8760;52.248;20.952;2022-12-18T09:27:21;-2.70;1.00
17284;DHT22;8760;52.248;20.952;2022-12-18T09:29:48;-2.70;1.00
17284;DHT22;8760;52.248;20.952;2022-12-18T09:32:15;-2.70;1.00
17284;DHT22;8760;52.248;20.952;2022-12-18T09:34:42;-2.70;1.00
17284;DHT22;8760;52.248;20.952;2022-12-18T09:37:09;-2.50;1.00
17284;DHT22;8760;52.248;20.952;2022-12-18T09:39:36;-2.40;99.90
17284;DHT22;8760;52.248;20.952;2022-12-18T09:42:04;-2.30;1.00
17284;DHT22;8760;52.248;20.952;2022-12-18T09:44:35;-2.40;99.90
17284;DHT22;8760;52.248;20.952;2022-12-18T09:47:08;-2.40;99.90
17284;DHT22;8760;52.248;20.952;2022-12-18T09:49:40;-2.40;99.90
17284;DHT22;8760;52.248;20.952;2022-12-18T09:52:13;-2.40;99.90
17284;DHT22;8760;52.248;20.952;2022-12-18T09:54:42;-2.50;1.00
17284;DHT22;8760;52.248;20.952;2022-12-18T09:57:14;-2.60;1.00
17284;DHT22;8760;52.248;20.952;2022-12-18T09:59:44;-2.50;1.00
17284;DHT22;8760;52.248;20.952;2022-12-18T10:02:18;-2.40;1.00
17284;DHT22;8760;52.248;20.952;2022-12-18T10:04:54;-2.60;1.20
17284;DHT22;8760;52.248;20.952;2022-12-18T10:07:28;-2.60;1.00
17284;DHT22;8760;52.248;20.952;2022-12-18T10:10:03;-2.70;1.00
17284;DHT22;8760;52.248;20.952;2022-12-18T10:12:42;-2.80;1.00
17284;DHT22;8760;52.248;20.952;2022-12-18T10:15:14;-2.80;99.90
17284;DHT22;8760;52.248;20.952;2022-12-18T10:17:45;-2.80;99.10
17284;DHT22;8760;52.248;20.952;2022-12-18T10:20:23;-2.90;1.00
17284;DHT22;8760;52.248;20.952;2022-12-18T10:22:57;-2.80;1.00
17284;DHT22;8760;52.248;20.952;2022-12-18T10:25:30;-2.80;1.00
17284;DHT22;8760;52.248;20.952;2022-12-18T10:28:07;-2.90;1.00
17284;DHT22;8760;52.248;20.952;2022-12-18T10:30:34;-3.00;6.70
17284;DHT22;8760;52.248;20.952;2022-12-18T10:33:01;-2.90;1.00
17284;DHT22;8760;52.248;20.952;2022-12-18T10:35:29;-2.90;1.00
17284;DHT22;8760;52.248;20.952;2022-12-18T10:38:04;-2.90;1.00
17284;DHT22;8760;52.248;20.952;2022-12-18T10:40:32;-2.80;1.00
17284;DHT22;8760;52.248;20.952;2022-12-18T10:43:12;-2.80;1.00
17284;DHT22;8760;52.248;20.952;2022-12-18T10:45:40;-2.60;1.00
17284;DHT22;8760;52.248;20.952;2022-12-18T10:48:18;-2.50;99.90
17284;DHT22;8760;52.248;20.952;2022-12-18T10:50:48;-2.40;1.00
17284;DHT22;8760;52.248;20.952;2022-12-18T10:53:20;-2.30;1.00
17284;DHT22;8760;52.248;20.952;2022-12-18T10:55:48;-2.30;38.00
17284;DHT22;8760;52.248;20.952;2022-12-18T10:58:23;-2.40;1.00
17284;DHT22;8760;52.248;20.952;2022-12-18T11:01:12;-2.40;1.00
17284;DHT22;8760;52.248;20.952;2022-12-18T11:03:40;-2.20;99.90
17284;DHT22;8760;52.248;20.952;2022-12-18T11:06:09;-2.20;1.00
17284;DHT22;8760;52.248;20.952;2022-12-18T11:08:37;-2.10;99.90
17284;DHT22;8760;52.248;20.952;2022-12-18T11:11:07;-2.10;1.00
17284;DHT22;8760;52.248;20.952;2022-12-18T11:13:55;-2.00;1.00
17284;DHT22;8760;52.248;20.952;2022-12-18T11:16:24;-2.00;99.90
17284;DHT22;8760;52.248;20.952;2022-12-18T11:18:51;-2.00;99.90
17284;DHT22;8760;52.248;20.952;2022-12-18T11:21:18;-2.00;1.00
17284;DHT22;8760;52.248;20.952;2022-12-18T11:23:47;-1.90;1.00
17284;DHT22;8760;52.248;20.952;2022-12-18T11:26:16;-1.80;1.00
17284;DHT22;8760;52.248;20.952;2022-12-18T11:28:46;-1.70;4.10
17284;DHT22;8760;52.248;20.952;2022-12-18T11:31:23;-1.70;1.00
17284;DHT22;8760;52.248;20.952;2022-12-18T11:34:00;-1.60;99.90
17284;DHT22;8760;52.248;20.952;2022-12-18T11:36:32;-1.60;99.90
17284;DHT22;8760;52.248;20.952;2022-12-18T11:39:03;-1.60;1.00
17284;DHT22;8760;52.248;20.952;2022-12-18T11:41:36;-1.60;32.60
17284;DHT22;8760;52.248;20.952;2022-12-18T11:44:28;-1.60;99.90
17284;DHT22;8760;52.248;20.952;2022-12-18T11:47:01;-1.70;1.00
17284;DHT22;8760;52.248;20.952;2022-12-18T11:49:33;-1.60;16.50
17284;DHT22;8760;52.248;20.952;2022-12-18T11:52:04;-1.70;1.00
17284;DHT22;8760;52.248;20.952;2022-12-18T11:54:34;-1.60;1.00
17284;DHT22;8760;52.248;20.952;2022-12-18T11:57:06;-1.50;99.90
17284;DHT22;8760;52.248;20.952;2022-12-18T11:59:39;-1.40;1.00
17284;DHT22;8760;52.248;20.952;2022-12-18T12:02:33;-1.40;1.00
17284;DHT22;8760;52.248;20.952;2022-12-18T12:05:20;-1.40;99.90
17284;DHT22;8760;52.248;20.952;2022-12-18T12:07:55;-1.50;99.90
17284;DHT22;8760;52.248;20.952;2022-12-18T12:10:36;-1.50;99.90
17284;DHT22;8760;52.248;20.952;2022-12-18T12:13:21;-1.50;68.60
17284;DHT22;8760;52.248;20.952;2022-12-18T12:16:03;-1.60;1.00
17284;DHT22;8760;52.248;20.952;2022-12-18T12:18:42;-1.50;1.00
17284;DHT22;8760;52.248;20.952;2022-12-18T12:21:18;-1.60;1.00
17284;DHT22;8760;52.248;20.952;2022-12-18T12:23:54;-1.40;99.90
17284;DHT22;8760;52.248;20.952;2022-12-18T12:26:32;-1.50;99.90
17284;DHT22;8760;52.248;20.952;2022-12-18T12:29:07;-1.70;1.00
17284;DHT22;8760;52.248;20.952;2022-12-18T12:31:57;-1.70;99.90
17284;DHT22;8760;52.248;20.952;2022-12-18T12:34:29;-1.80;1.00
17284;DHT22;8760;52.248;20.952;2022-12-18T12:37:10;-1.70;1.00
17284;DHT22;8760;52.248;20.952;2022-12-18T12:39:42;-1.80;1.00
17284;DHT22;8760;52.248;20.952;2022-12-18T12:42:15;-1.70;1.00
17284;DHT22;8760;52.248;20.952;2022-12-18T12:45:18;-1.60;1.00
17284;DHT22;8760;52.248;20.952;2022-12-18T12:47:49;-1.70;99.90
17284;DHT22;8760;52.248;20.952;2022-12-18T12:50:19;-1.60;99.90
17284;DHT22;8760;52.248;20.952;2022-12-18T12:52:48;-1.60;2.50
17284;DHT22;8760;52.248;20.952;2022-12-18T12:55:18;-1.60;1.00
17284;DHT22;8760;52.248;20.952;2022-12-18T12:57:51;-1.70;1.00
17284;DHT22;8760;52.248;20.952;2022-12-18T13:00:21;-1.80;1.00
17284;DHT22;8760;52.248;20.952;2022-12-18T13:02:55;-1.90;1.00
17284;DHT22;8760;52.248;20.952;2022-12-18T13:05:29;-2.00;1.00
17284;DHT22;8760;52.248;20.952;2022-12-18T13:08:02;-2.00;99.90
17284;DHT22;8760;52.248;20.952;2022-12-18T13:10:34;-1.90;1.00
17284;DHT22;8760;52.248;20.952;2022-12-18T13:13:04;-1.90;99.90
17284;DHT22;8760;52.248;20.952;2022-12-18T13:15:34;-2.10;1.00
17284;DHT22;8760;52.248;20.952;2022-12-18T13:18:17;-2.10;99.90
17284;DHT22;8760;52.248;20.952;2022-12-18T13:20:45;-2.30;99.90
17284;DHT22;8760;52.248;20.952;2022-12-18T13:23:33;-2.40;99.90
17284;DHT22;8760;52.248;20.952;2022-12-18T13:26:29;-2.50;7.70
17284;DHT22;8760;52.248;20.952;2022-12-18T13:28:59;-2.60;1.00
17284;DHT22;8760;52.248;20.952;2022-12-18T13:34:35;-2.70;1.00
17284;DHT22;8760;52.248;20.952;2022-12-18T13:37:40;-2.80;99.90
17284;DHT22;8760;52.248;20.952;2022-12-18T13:43:24;-2.90;1.00
17284;DHT22;8760;52.248;20.952;2022-12-18T13:46:05;-3.00;1.00
17284;DHT22;8760;52.248;20.952;2022-12-18T13:48:34;-3.00;99.90
17284;DHT22;8760;52.248;20.952;2022-12-18T13:51:06;-3.00;99.90
17284;DHT22;8760;52.248;20.952;2022-12-18T13:53:36;-3.00;1.00
17284;DHT22;8760;52.248;20.952;2022-12-18T13:56:05;-3.00;1.00
17284;DHT22;8760;52.248;20.952;2022-12-18T13:58:32;-3.00;1.00
17284;DHT22;8760;52.248;20.952;2022-12-18T14:00:59;-3.00;99.90
17284;DHT22;8760;52.248;20.952;2022-12-18T14:03:29;-2.90;99.90
17284;DHT22;8760;52.248;20.952;2022-12-18T14:05:59;-2.90;99.90
17284;DHT22;8760;52.248;20.952;2022-12-18T14:08:33;-2.90;1.00
17284;DHT22;8760;52.248;20.952;2022-12-18T14:11:03;-3.00;1.00
17284;DHT22;8760;52.248;20.952;2022-12-18T14:13:33;-3.10;1.00
17284;DHT22;8760;52.248;20.952;2022-12-18T14:16:04;-3.20;99.90
17284;DHT22;8760;52.248;20.952;2022-12-18T14:18:37;-3.30;1.00
17284;DHT22;8760;52.248;20.952;2022-12-18T14:21:05;-3.40;1.00
17284;DHT22;8760;52.248;20.952;2022-12-18T14:23:36;-3.40;1.00
17284;DHT22;8760;52.248;20.952;2022-12-18T14:26:20;-3.40;99.90
17284;DHT22;8760;52.248;20.952;2022-12-18T14:28:47;-3.30;99.90
17284;DHT22;8760;52.248;20.952;2022-12-18T14:31:18;-3.40;1.00
17284;DHT22;8760;52.248;20.952;2022-12-18T14:33:45;-3.40;99.90
17284;DHT22;8760;52.248;20.952;2022-12-18T14:36:17;-3.40;50.70
17284;DHT22;8760;52.248;20.952;2022-12-18T14:38:49;-3.30;99.90
17284;DHT22;8760;52.248;20.952;2022-12-18T14:41:17;-3.30;16.00
17284;DHT22;8760;52.248;20.952;2022-12-18T14:43:45;-3.30;81.30
17284;DHT22;8760;52.248;20.952;2022-12-18T14:46:28;-3.30;99.90
17284;DHT22;8760;52.248;20.952;2022-12-18T14:48:55;-3.20;99.90
17284;DHT22;8760;52.248;20.952;2022-12-18T14:51:24;-3.10;1.00
17284;DHT22;8760;52.248;20.952;2022-12-18T14:53:56;-3.20;1.00
17284;DHT22;8760;52.248;20.952;2022-12-18T14:56:25;-3.20;1.00
17284;DHT22;8760;52.248;20.952;2022-12-18T14:58:54;-3.10;1.00
17284;DHT22;8760;52.248;20.952;2022-12-18T15:01:24;-3.20;7.70
17284;DHT22;8760;52.248;20.952;2022-12-18T15:03:52;-3.20;46.50
17284;DHT22;8760;52.248;20.952;2022-12-18T15:06:35;-3.30;1.00
17284;DHT22;8760;52.248;20.952;2022-12-18T15:09:18;-3.40;99.90
17284;DHT22;8760;52.248;20.952;2022-12-18T15:11:47;-3.40;99.90
17284;DHT22;8760;52.248;20.952;2022-12-18T15:14:33;-3.40;1.00
17284;DHT22;8760;52.248;20.952;2022-12-18T15:17:03;-3.40;1.00
17284;DHT22;8760;52.248;20.952;2022-12-18T15:19:37;-3.40;1.00
17284;DHT22;8760;52.248;20.952;2022-12-18T15:22:12;-3.40;1.00
17284;DHT22;8760;52.248;20.952;2022-12-18T15:24:44;-3.30;1.00
17284;DHT22;8760;52.248;20.952;2022-12-18T15:27:24;-3.40;1.00
17284;DHT22;8760;52.248;20.952;2022-12-18T15:30:18;-3.30;68.90
17284;DHT22;8760;52.248;20.952;2022-12-18T15:32:45;-3.30;1.00
17284;DHT22;8760;52.248;20.952;2022-12-18T15:35:20;-3.20;1.00
17284;DHT22;8760;52.248;20.952;2022-12-18T15:37:47;-3.20;1.00
17284;DHT22;8760;52.248;20.952;2022-12-18T15:40:18;-3.20;1.00
17284;DHT22;8760;52.248;20.952;2022-12-18T15:42:45;-3.20;99.90
17284;DHT22;8760;52.248;20.952;2022-12-18T15:45:30;-3.20;1.00
17284;DHT22;8760;52.248;20.952;2022-12-18T15:47:57;-3.30;31.30
17284;DHT22;8760;52.248;20.952;2022-12-18T15:50:24;-3.30;99.90
17284;DHT22;8760;52.248;20.952;2022-12-18T15:52:53;-3.20;99.90
17284;DHT22;8760;52.248;20.952;2022-12-18T15:55:23;-3.10;86.80
17284;DHT22;8760;52.248;20.952;2022-12-18T15:58:09;-3.20;1.00
17284;DHT22;8760;52.248;20.952;2022-12-18T16:00:37;-3.40;99.90
17284;DHT22;8760;52.248;20.952;2022-12-18T16:03:05;-3.30;99.90
17284;DHT22;8760;52.248;20.952;2022-12-18T16:05:32;-3.20;1.00
17284;DHT22;8760;52.248;20.952;2022-12-18T16:07:59;-3.10;1.00